Time;durP1;ratioP1;P1;durP2;ratioP2;P2;SDS_P1;SDS_P2;PMS_P1;PMS_P2;Temp;Humidity;BMP_temperature;BMP_pressure;BME280_temperature;BME280_humidity;BME280_pressure;Samples;Min_cycle;Max_cycle;Signal;HPM_P1;HPM_P2
2022/11/24 00:01:21;;;;;;;42.95;19.08;;;;;;;;;;4982450;28;20042;-92
2022/11/24 00:04:02;;;;;;;40.38;18.80;;;;;;;;;;4986551;28;20064;-92
2022/11/24 00:06:28;;;;;;;39.20;19.25;;;;;;;;;;4968277;28;20045;-92
2022/11/24 00:08:54;;;;;;;48.22;19.80;;;;;;;;;;4962765;28;20054;-91
2022/11/24 00:11:22;;;;;;;36.63;18.40;;;;;;;;;;4963621;28;20074;-92
2022/11/24 00:13:48;;;;;;;;;;;;;;;;;;4982547;28;20371;-91
2022/11/24 00:16:19;;;;;;;42.83;18.50;;;;;;;;;;4963955;28;19913;-90
2022/11/24 00:18:46;;;;;;;42.38;19.58;;;;;;;;;;4973465;28;20045;-94
2022/11/24 00:21:13;;;;;;;40.53;18.08;;;;;;;;;;4956211;28;20175;-92
2022/11/24 00:23:39;;;;;;;43.80;20.58;;;;;;;;;;4950430;28;20626;-94
2022/11/24 00:26:15;;;;;;;46.92;20.08;;;;;;;;;;4954856;28;20027;-92
2022/11/24 00:28:42;;;;;;;45.72;18.95;;;;;;;;;;4949667;28;20047;-93
2022/11/24 00:31:35;;;;;;;49.22;21.23;;;;;;;;;;4947054;28;20070;-92
2022/11/24 00:34:02;;;;;;;45.80;20.23;;;;;;;;;;4930999;28;20105;-91
2022/11/24 00:36:29;;;;;;;42.88;19.25;;;;;;;;;;4949717;28;20034;-91
2022/11/24 00:38:56;;;;;;;44.95;19.75;;;;;;;;;;4947200;28;20042;-91
2022/11/24 00:41:27;;;;;;;46.22;20.90;;;;;;;;;;4968913;28;20072;-92
2022/11/24 00:43:53;;;;;;;44.63;19.85;;;;;;;;;;4988698;28;20030;-91
2022/11/24 00:46:22;;;;;;;45.30;21.08;;;;;;;;;;4976831;28;20493;-91
2022/11/24 00:48:47;;;;;;;45.17;21.08;;;;;;;;;;4998787;28;20207;-92
2022/11/24 00:51:14;;;;;;;44.33;20.80;;;;;;;;;;4999724;28;20030;-93
2022/11/24 00:53:40;;;;;;;45.00;21.67;;;;;;;;;;4999140;28;20034;-93
2022/11/24 00:56:06;;;;;;;52.17;21.08;;;;;;;;;;5012252;28;20393;-92
2022/11/24 00:58:32;;;;;;;48.97;22.23;;;;;;;;;;5007504;28;20154;-91
2022/11/24 01:01:16;;;;;;;46.38;20.88;;;;;;;;;;4998066;28;20614;-92
2022/11/24 01:03:41;;;;;;;47.30;21.67;;;;;;;;;;5002152;28;20041;-92
2022/11/24 01:06:15;;;;;;;45.40;21.00;;;;;;;;;;5005533;28;20041;-91
2022/11/24 01:08:41;;;;;;;42.72;19.60;;;;;;;;;;4982840;28;20141;-91
2022/11/24 01:11:18;;;;;;;47.22;22.10;;;;;;;;;;4977827;28;20489;-91
2022/11/24 01:13:45;;;;;;;45.35;20.92;;;;;;;;;;4989011;28;20060;-91
2022/11/24 01:16:18;;;;;;;50.70;23.47;;;;;;;;;;4976621;28;20394;-93
2022/11/24 01:18:43;;;;;;;47.92;21.25;;;;;;;;;;4995948;28;20038;-93
2022/11/24 01:21:09;;;;;;;45.67;21.30;;;;;;;;;;4996975;28;20433;-92
2022/11/24 01:23:34;;;;;;;47.92;21.60;;;;;;;;;;4976473;28;20122;-92
2022/11/24 01:26:03;;;;;;;49.15;21.02;;;;;;;;;;4994255;28;20553;-92
2022/11/24 01:28:29;;;;;;;46.42;21.23;;;;;;;;;;4986473;28;20047;-92
2022/11/24 01:31:03;;;;;;;47.20;22.73;;;;;;;;;;4981633;28;20061;-92
2022/11/24 01:33:29;;;;;;;46.00;20.67;;;;;;;;;;5000807;28;20493;-91
2022/11/24 01:35:56;;;;;;;45.13;20.98;;;;;;;;;;4978431;28;20050;-90
2022/11/24 01:38:21;;;;;;;50.50;22.00;;;;;;;;;;4986874;28;20521;-92
2022/11/24 01:40:47;;;;;;;45.17;19.63;;;;;;;;;;4993419;28;20121;-91
2022/11/24 01:43:20;;;;;;;42.17;21.00;;;;;;;;;;4979187;28;20429;-91
2022/11/24 01:45:49;;;;;;;43.38;20.60;;;;;;;;;;4978550;28;20050;-92
2022/11/24 01:48:24;;;;;;;44.10;19.60;;;;;;;;;;4986029;28;20039;-92
2022/11/24 01:50:54;;;;;;;43.88;20.45;;;;;;;;;;4993781;28;20042;-92
2022/11/24 01:53:20;;;;;;;41.63;19.52;;;;;;;;;;4987089;28;20462;-91
2022/11/24 01:55:46;;;;;;;34.17;17.15;;;;;;;;;;4986674;28;20113;-91
2022/11/24 01:58:14;;;;;;;37.05;17.13;;;;;;;;;;4987648;28;20129;-91
2022/11/24 02:00:42;;;;;;;36.15;16.98;;;;;;;;;;4986075;28;20068;-91
2022/11/24 02:03:08;;;;;;;34.45;17.30;;;;;;;;;;4986579;28;20052;-91
2022/11/24 02:06:06;;;;;;;33.53;17.35;;;;;;;;;;4979670;28;20390;-89
2022/11/24 02:08:51;;;;;;;39.03;17.15;;;;;;;;;;4963749;28;20042;-91
2022/11/24 02:11:18;;;;;;;34.90;17.13;;;;;;;;;;4984267;28;20054;-92
2022/11/24 02:13:44;;;;;;;37.22;18.05;;;;;;;;;;5004608;28;20045;-92
2022/11/24 02:16:10;;;;;;;38.38;18.08;;;;;;;;;;4980211;28;20029;-91
2022/11/24 02:18:42;;;;;;;38.95;18.92;;;;;;;;;;5007256;28;20045;-91
2022/11/24 02:21:12;;;;;;;36.88;18.35;;;;;;;;;;5012272;28;20128;-93
2022/11/24 02:24:08;;;;;;;36.03;17.08;;;;;;;;;;4995858;28;20455;-90
2022/11/24 02:26:36;;;;;;;37.60;17.08;;;;;;;;;;5014601;28;20026;-91
2022/11/24 02:29:02;;;;;;;35.00;17.35;;;;;;;;;;5012976;28;20041;-92
2022/11/24 02:31:28;;;;;;;37.72;17.95;;;;;;;;;;5005770;28;20057;-93
2022/11/24 02:33:54;;;;;;;35.33;16.67;;;;;;;;;;4999287;28;20516;-92
2022/11/24 02:36:19;;;;;;;34.88;16.75;;;;;;;;;;5000822;28;20524;-92
2022/11/24 02:38:45;;;;;;;34.20;17.88;;;;;;;;;;5014904;28;20067;-90
2022/11/24 02:41:14;;;;;;;34.30;18.08;;;;;;;;;;5003409;28;20497;-92
2022/11/24 02:43:47;;;;;;;37.83;17.40;;;;;;;;;;4997381;28;20188;-93
2022/11/24 02:46:13;;;;;;;36.00;17.65;;;;;;;;;;5012953;28;20531;-92
2022/11/24 02:48:40;;;;;;;42.13;18.60;;;;;;;;;;4981514;28;20042;-93
2022/11/24 02:51:06;;;;;;;33.83;16.92;;;;;;;;;;4994746;28;20034;-93
2022/11/24 02:53:31;;;;;;;36.25;16.95;;;;;;;;;;5004317;28;20057;-93
2022/11/24 02:55:57;;;;;;;35.85;18.67;;;;;;;;;;5009320;28;20034;-92
2022/11/24 02:58:22;;;;;;;36.63;17.40;;;;;;;;;;5003491;28;20034;-93
2022/11/24 03:00:48;;;;;;;41.83;17.83;;;;;;;;;;4989505;28;20063;-91
2022/11/24 03:03:14;;;;;;;38.42;18.33;;;;;;;;;;5016271;28;20126;-92
2022/11/24 03:05:39;;;;;;;42.78;19.23;;;;;;;;;;5012590;28;20042;-92
2022/11/24 03:08:05;;;;;;;40.97;20.80;;;;;;;;;;4988065;28;20068;-90
2022/11/24 03:10:31;;;;;;;37.58;18.33;;;;;;;;;;5000167;28;20041;-92
2022/11/24 03:13:16;;;;;;;40.40;18.98;;;;;;;;;;5007466;28;20037;-92
2022/11/24 03:15:42;;;;;;;36.03;16.98;;;;;;;;;;4960678;28;20089;-93
2022/11/24 03:18:07;;;;;;;40.05;19.63;;;;;;;;;;4960204;28;20069;-93
2022/11/24 03:20:33;;;;;;;39.63;18.48;;;;;;;;;;4965929;28;20045;-92
2022/11/24 03:22:58;;;;;;;35.47;17.35;;;;;;;;;;4967981;28;20134;-93
2022/11/24 03:25:23;;;;;;;38.38;17.52;;;;;;;;;;4965066;28;20073;-91
2022/11/24 03:27:50;;;;;;;42.50;19.52;;;;;;;;;;4954363;28;20035;-92
2022/11/24 03:30:16;;;;;;;42.00;18.77;;;;;;;;;;4962227;28;20109;-93
2022/11/24 03:32:42;;;;;;;40.97;18.87;;;;;;;;;;4960609;28;20166;-93
2022/11/24 03:35:08;;;;;;;38.42;18.83;;;;;;;;;;4954798;28;20562;-92
2022/11/24 03:37:33;;;;;;;41.17;18.85;;;;;;;;;;4956284;28;20050;-93
2022/11/24 03:39:58;;;;;;;40.30;18.70;;;;;;;;;;4944970;28;20035;-93
2022/11/24 03:42:24;;;;;;;42.30;18.10;;;;;;;;;;4962067;28;20150;-93
2022/11/24 03:44:49;;;;;;;39.50;18.08;;;;;;;;;;4952284;28;20045;-92
2022/11/24 03:47:15;;;;;;;39.55;18.77;;;;;;;;;;4959259;28;20426;-93
2022/11/24 03:49:41;;;;;;;42.15;20.15;;;;;;;;;;4946897;28;20179;-92
2022/11/24 03:52:07;;;;;;;40.00;18.17;;;;;;;;;;4969280;28;20072;-93
2022/11/24 03:54:35;;;;;;;40.72;19.73;;;;;;;;;;5001412;28;20513;-92
2022/11/24 03:57:00;;;;;;;39.53;18.33;;;;;;;;;;5004964;28;20030;-92
2022/11/24 03:59:26;;;;;;;36.58;17.13;;;;;;;;;;4963290;28;20041;-91
2022/11/24 04:01:52;;;;;;;35.35;17.20;;;;;;;;;;5003256;28;20030;-92
2022/11/24 04:04:17;;;;;;;40.08;18.33;;;;;;;;;;5015016;28;20033;-93
2022/11/24 04:06:43;;;;;;;38.72;18.17;;;;;;;;;;5014921;28;20041;-92
2022/11/24 04:09:08;;;;;;;41.78;17.92;;;;;;;;;;5000303;28;20046;-92
2022/11/24 04:14:18;;;;;;;38.25;17.00;;;;;;;;;;5017246;28;20172;-94
2022/11/24 04:16:44;;;;;;;37.60;18.20;;;;;;;;;;5015788;28;20133;-93
2022/11/24 04:19:09;;;;;;;44.33;18.77;;;;;;;;;;5015839;28;20421;-93
2022/11/24 04:21:34;;;;;;;38.70;17.10;;;;;;;;;;4997300;28;20160;-93
2022/11/24 04:24:00;;;;;;;39.03;18.77;;;;;;;;;;4984482;28;20061;-92
2022/11/24 04:26:26;;;;;;;42.08;18.50;;;;;;;;;;4994940;28;20049;-91
2022/11/24 04:28:52;;;;;;;38.15;17.58;;;;;;;;;;4999468;28;20062;-92
2022/11/24 04:31:17;;;;;;;37.70;17.58;;;;;;;;;;5004629;28;20065;-92
2022/11/24 04:33:43;;;;;;;41.10;19.02;;;;;;;;;;5000870;28;20065;-93
2022/11/24 04:36:08;;;;;;;38.65;17.02;;;;;;;;;;4995659;28;20034;-92
2022/11/24 04:38:34;;;;;;;39.22;18.23;;;;;;;;;;5002345;28;20114;-92
2022/11/24 04:41:03;;;;;;;35.28;17.30;;;;;;;;;;5014849;28;20405;-91
2022/11/24 04:43:32;;;;;;;39.33;18.30;;;;;;;;;;5006922;28;20056;-93
2022/11/24 04:46:00;;;;;;;38.50;17.52;;;;;;;;;;5006377;28;20033;-93
2022/11/24 04:48:26;;;;;;;39.65;17.80;;;;;;;;;;4996695;28;20038;-91
2022/11/24 04:50:54;;;;;;;42.50;17.90;;;;;;;;;;4992305;28;20044;-92
2022/11/24 04:53:20;;;;;;;35.15;16.40;;;;;;;;;;5000876;28;20030;-91
2022/11/24 04:55:48;;;;;;;40.85;17.50;;;;;;;;;;5006486;28;20099;-90
2022/11/24 04:58:16;;;;;;;38.95;18.08;;;;;;;;;;5006790;28;20067;-90
2022/11/24 05:00:41;;;;;;;36.97;17.27;;;;;;;;;;5013486;28;20045;-90
2022/11/24 05:03:07;;;;;;;36.75;16.30;;;;;;;;;;5013534;28;20101;-90
2022/11/24 05:05:32;;;;;;;36.20;16.65;;;;;;;;;;4998041;28;20032;-93
2022/11/24 05:07:58;;;;;;;36.95;16.55;;;;;;;;;;5000035;28;20045;-86
2022/11/24 05:10:36;;;;;;;37.63;16.08;;;;;;;;;;5002356;28;20038;-85
2022/11/24 05:13:12;;;;;;;41.50;16.65;;;;;;;;;;5004557;28;20429;-86
2022/11/24 05:15:39;;;;;;;31.25;15.32;;;;;;;;;;5005527;28;20048;-84
2022/11/24 05:18:06;;;;;;;32.45;14.85;;;;;;;;;;5007973;28;20034;-87
2022/11/24 05:20:32;;;;;;;31.23;15.70;;;;;;;;;;4995061;28;20034;-85
2022/11/24 05:23:05;;;;;;;35.20;16.30;;;;;;;;;;4994559;28;20381;-87
2022/11/24 05:25:31;;;;;;;31.73;15.90;;;;;;;;;;5003379;28;20388;-85
2022/11/24 05:28:02;;;;;;;31.83;15.75;;;;;;;;;;4985941;28;20439;-87
2022/11/24 05:30:28;;;;;;;34.65;15.10;;;;;;;;;;4994355;28;20042;-87
2022/11/24 05:32:54;;;;;;;40.67;16.08;;;;;;;;;;5005440;28;20044;-87
2022/11/24 05:35:20;;;;;;;32.05;14.90;;;;;;;;;;4992193;28;20755;-85
2022/11/24 05:37:46;;;;;;;38.10;15.60;;;;;;;;;;5006831;28;20121;-86
2022/11/24 05:40:12;;;;;;;31.45;13.93;;;;;;;;;;5004792;28;20040;-85
2022/11/24 05:42:40;;;;;;;37.03;14.18;;;;;;;;;;5006672;28;20460;-86
2022/11/24 05:45:08;;;;;;;33.40;14.75;;;;;;;;;;5001572;28;20029;-83
2022/11/24 05:47:34;;;;;;;34.38;15.45;;;;;;;;;;5012974;28;20097;-83
2022/11/24 05:49:59;;;;;;;35.47;15.80;;;;;;;;;;4995777;28;20041;-83
2022/11/24 05:52:25;;;;;;;33.05;14.50;;;;;;;;;;5006148;28;20489;-83
2022/11/24 05:54:50;;;;;;;33.95;14.70;;;;;;;;;;5006621;28;20075;-84
2022/11/24 05:57:16;;;;;;;38.92;15.23;;;;;;;;;;4997167;28;20030;-83
2022/11/24 05:59:42;;;;;;;35.05;14.45;;;;;;;;;;4998273;28;20111;-83
2022/11/24 06:02:08;;;;;;;33.38;14.55;;;;;;;;;;5013479;28;20053;-83
2022/11/24 06:04:34;;;;;;;29.27;13.53;;;;;;;;;;5014155;28;20041;-82
2022/11/24 06:07:00;;;;;;;32.15;13.77;;;;;;;;;;5011636;28;20591;-82
2022/11/24 06:09:25;;;;;;;35.85;15.50;;;;;;;;;;4994618;28;20117;-83
2022/11/24 06:11:51;;;;;;;30.10;14.13;;;;;;;;;;4990628;28;20517;-82
2022/11/24 06:14:19;;;;;;;31.17;14.45;;;;;;;;;;4987885;28;20506;-83
2022/11/24 06:16:45;;;;;;;35.20;15.18;;;;;;;;;;4989582;28;20033;-83
2022/11/24 06:19:10;;;;;;;33.63;15.85;;;;;;;;;;4995969;28;20040;-83
2022/11/24 06:21:36;;;;;;;29.77;14.30;;;;;;;;;;5013000;28;20037;-83
2022/11/24 06:24:01;;;;;;;34.85;14.35;;;;;;;;;;5005120;28;20037;-83
2022/11/24 06:26:47;;;;;;;36.38;15.57;;;;;;;;;;4995886;28;20149;-83
2022/11/24 06:29:13;;;;;;;27.23;13.00;;;;;;;;;;4919500;29;20082;-83
2022/11/24 06:31:38;;;;;;;36.13;16.08;;;;;;;;;;4911470;29;20035;-83
2022/11/24 06:34:09;;;;;;;33.17;14.70;;;;;;;;;;4938165;29;20120;-82
2022/11/24 06:36:35;;;;;;;29.67;13.63;;;;;;;;;;4941255;29;20519;-82
2022/11/24 06:39:01;;;;;;;30.92;14.07;;;;;;;;;;4918779;29;20125;-82
2022/11/24 06:41:27;;;;;;;34.72;13.85;;;;;;;;;;4909463;29;20039;-82
2022/11/24 06:43:52;;;;;;;32.40;14.40;;;;;;;;;;4913038;29;20035;-82
2022/11/24 06:46:18;;;;;;;34.40;15.73;;;;;;;;;;4925287;29;20066;-82
2022/11/24 06:48:43;;;;;;;36.17;15.98;;;;;;;;;;4913570;29;20080;-81
2022/11/24 06:51:11;;;;;;;35.08;14.55;;;;;;;;;;4926226;29;20043;-86
2022/11/24 06:53:38;;;;;;;31.15;14.77;;;;;;;;;;4928163;29;20158;-85
2022/11/24 06:56:09;;;;;;;31.02;14.73;;;;;;;;;;4925390;29;20524;-85
2022/11/24 06:58:34;;;;;;;30.48;14.20;;;;;;;;;;4905479;29;20694;-86
2022/11/24 07:00:59;;;;;;;32.88;14.63;;;;;;;;;;4927075;29;20046;-87
2022/11/24 07:03:25;;;;;;;30.52;14.40;;;;;;;;;;4916463;29;20502;-87
2022/11/24 07:05:57;;;;;;;34.15;14.85;;;;;;;;;;4935372;28;20077;-86
2022/11/24 07:08:23;;;;;;;31.05;14.27;;;;;;;;;;4987304;28;20050;-86
2022/11/24 07:10:49;;;;;;;34.67;16.15;;;;;;;;;;5011619;28;20386;-87
2022/11/24 07:13:15;;;;;;;30.95;14.45;;;;;;;;;;4994883;28;20068;-87
2022/11/24 07:15:40;;;;;;;30.20;12.82;;;;;;;;;;4994321;28;20488;-86
2022/11/24 07:18:05;;;;;;;33.83;14.82;;;;;;;;;;5004963;28;20033;-86
2022/11/24 07:20:31;;;;;;;34.97;14.75;;;;;;;;;;5011229;28;20539;-87
2022/11/24 07:22:57;;;;;;;32.83;14.35;;;;;;;;;;4994857;28;20033;-87
2022/11/24 07:25:25;;;;;;;34.78;15.15;;;;;;;;;;4988396;28;20113;-87
2022/11/24 07:27:57;;;;;;;29.45;14.45;;;;;;;;;;4995092;28;20429;-87
2022/11/24 07:30:24;;;;;;;33.95;13.88;;;;;;;;;;5010436;28;20034;-86
2022/11/24 07:32:49;;;;;;;27.63;12.95;;;;;;;;;;5011149;28;20034;-85
2022/11/24 07:35:15;;;;;;;29.90;13.60;;;;;;;;;;4996871;28;20497;-86
2022/11/24 07:37:40;;;;;;;29.58;12.90;;;;;;;;;;4980466;28;20029;-85
2022/11/24 07:40:07;;;;;;;29.50;12.70;;;;;;;;;;5013415;28;20489;-86
2022/11/24 07:42:32;;;;;;;27.30;12.98;;;;;;;;;;5027659;28;20173;-85
2022/11/24 07:44:57;;;;;;;27.45;12.40;;;;;;;;;;4999801;28;20038;-86
2022/11/24 07:47:23;;;;;;;25.70;12.45;;;;;;;;;;4990447;28;20061;-86
2022/11/24 07:49:48;;;;;;;26.48;12.85;;;;;;;;;;4998801;28;20073;-86
2022/11/24 07:52:13;;;;;;;27.48;12.80;;;;;;;;;;4984485;28;20396;-86
2022/11/24 07:54:39;;;;;;;30.40;13.82;;;;;;;;;;5007707;28;20048;-86
2022/11/24 07:57:04;;;;;;;29.88;12.65;;;;;;;;;;5015004;28;20041;-85
2022/11/24 07:59:29;;;;;;;28.35;13.77;;;;;;;;;;5004611;28;20414;-86
2022/11/24 08:01:55;;;;;;;31.38;14.10;;;;;;;;;;5016818;28;20438;-85
2022/11/24 08:04:20;;;;;;;30.55;14.20;;;;;;;;;;5001928;28;20398;-86
2022/11/24 08:06:45;;;;;;;31.65;14.07;;;;;;;;;;5001693;28;20041;-86
2022/11/24 08:09:11;;;;;;;29.95;13.73;;;;;;;;;;4996491;28;20057;-88
2022/11/24 08:11:38;;;;;;;28.25;13.50;;;;;;;;;;5015657;28;20037;-87
2022/11/24 08:14:09;;;;;;;32.20;13.00;;;;;;;;;;5000670;28;20029;-87
2022/11/24 08:16:35;;;;;;;26.58;13.43;;;;;;;;;;5013170;28;20763;-87
2022/11/24 08:19:00;;;;;;;27.98;13.30;;;;;;;;;;4999647;28;20038;-87
2022/11/24 08:21:25;;;;;;;27.45;13.50;;;;;;;;;;4998454;28;20109;-87
2022/11/24 08:23:55;;;;;;;26.92;13.40;;;;;;;;;;5013492;28;20358;-86
2022/11/24 08:26:20;;;;;;;26.23;13.40;;;;;;;;;;5016756;28;20438;-87
2022/11/24 08:28:52;;;;;;;25.20;13.27;;;;;;;;;;4997788;28;20041;-87
2022/11/24 08:31:17;;;;;;;30.20;13.82;;;;;;;;;;5006219;28;20120;-85
2022/11/24 08:33:43;;;;;;;27.73;13.50;;;;;;;;;;5012256;28;20112;-84
2022/11/24 08:36:14;;;;;;;28.77;13.38;;;;;;;;;;5018140;28;20030;-85
2022/11/24 08:38:40;;;;;;;28.17;13.82;;;;;;;;;;4998835;28;20042;-85
2022/11/24 08:41:07;;;;;;;26.27;12.65;;;;;;;;;;5001906;28;20048;-85
2022/11/24 08:43:35;;;;;;;24.05;12.88;;;;;;;;;;5020910;28;20045;-85
2022/11/24 08:46:02;;;;;;;31.08;14.52;;;;;;;;;;4992952;28;20060;-86
2022/11/24 08:48:28;;;;;;;27.85;14.07;;;;;;;;;;4977437;28;20490;-84
2022/11/24 08:50:54;;;;;;;26.80;12.45;;;;;;;;;;5007817;28;20087;-86
2022/11/24 08:53:19;;;;;;;26.98;12.93;;;;;;;;;;5010861;28;20093;-86
2022/11/24 08:55:45;;;;;;;27.90;13.20;;;;;;;;;;5014228;28;20060;-88
2022/11/24 08:58:10;;;;;;;25.58;13.45;;;;;;;;;;5008411;28;20036;-86
2022/11/24 09:00:36;;;;;;;28.33;13.32;;;;;;;;;;5003392;28;20033;-86
2022/11/24 09:03:02;;;;;;;24.75;11.80;;;;;;;;;;4995069;28;20054;-87
2022/11/24 09:05:28;;;;;;;27.87;13.73;;;;;;;;;;5007673;28;20033;-87
2022/11/24 09:07:53;;;;;;;25.55;13.07;;;;;;;;;;4997737;28;20520;-88
2022/11/24 09:10:19;;;;;;;25.70;12.75;;;;;;;;;;4995585;28;20049;-87
2022/11/24 09:12:45;;;;;;;26.23;12.98;;;;;;;;;;4990636;28;20060;-87
2022/11/24 09:15:12;;;;;;;27.53;12.23;;;;;;;;;;4983642;28;20408;-87
2022/11/24 09:17:38;;;;;;;26.88;13.73;;;;;;;;;;4982482;28;20084;-88
2022/11/24 09:20:04;;;;;;;24.98;12.88;;;;;;;;;;4997850;28;20459;-87
2022/11/24 09:22:33;;;;;;;25.48;11.57;;;;;;;;;;4996512;28;20381;-86
2022/11/24 09:24:58;;;;;;;27.77;13.10;;;;;;;;;;4991468;28;20088;-87
2022/11/24 09:27:24;;;;;;;25.38;12.40;;;;;;;;;;5002147;28;20042;-87
2022/11/24 09:29:49;;;;;;;25.52;12.93;;;;;;;;;;4992259;28;20140;-86
2022/11/24 09:32:15;;;;;;;28.73;13.15;;;;;;;;;;4986554;28;20058;-87
2022/11/24 09:34:40;;;;;;;27.33;12.95;;;;;;;;;;4980241;28;20038;-89
2022/11/24 09:37:05;;;;;;;26.05;13.25;;;;;;;;;;4998400;28;20034;-87
2022/11/24 09:39:31;;;;;;;26.35;13.02;;;;;;;;;;4985271;28;20034;-86
2022/11/24 09:42:15;;;;;;;24.10;12.48;;;;;;;;;;4971493;28;20465;-87
2022/11/24 09:44:52;;;;;;;24.00;12.70;;;;;;;;;;4983691;28;20512;-87
2022/11/24 09:47:27;;;;;;;25.70;12.60;;;;;;;;;;4993165;28;20135;-86
2022/11/24 09:49:55;;;;;;;25.05;12.07;;;;;;;;;;4972726;28;20490;-86
2022/11/24 09:52:40;;;;;;;22.95;12.50;;;;;;;;;;4995673;28;20040;-86
2022/11/24 09:55:43;;;;;;;24.02;12.45;;;;;;;;;;4977667;28;20049;-85
2022/11/24 09:58:20;;;;;;;22.85;12.30;;;;;;;;;;4980140;28;20034;-86
2022/11/24 10:00:47;;;;;;;25.98;11.75;;;;;;;;;;4985307;28;20061;-87
2022/11/24 10:03:22;;;;;;;25.45;12.85;;;;;;;;;;4992857;28;20037;-87
2022/11/24 10:05:49;;;;;;;26.90;13.43;;;;;;;;;;5000327;28;20105;-86
2022/11/24 10:08:37;;;;;;;26.45;13.18;;;;;;;;;;5014840;28;20125;-85
2022/11/24 10:11:10;;;;;;;22.83;13.00;;;;;;;;;;5003937;28;20509;-86
2022/11/24 10:14:11;;;;;;;27.48;13.55;;;;;;;;;;5012984;28;20045;-86
2022/11/24 10:16:56;;;;;;;22.63;12.40;;;;;;;;;;5020232;28;20988;-85
2022/11/24 10:19:33;;;;;;;24.00;12.82;;;;;;;;;;5000076;28;20053;-85
2022/11/24 10:22:14;;;;;;;25.65;13.07;;;;;;;;;;4998065;28;20034;-86
2022/11/24 10:24:58;;;;;;;24.17;13.07;;;;;;;;;;5007673;28;20509;-86
2022/11/24 10:27:33;;;;;;;24.88;11.77;;;;;;;;;;5029263;28;20105;-86
2022/11/24 10:29:59;;;;;;;25.83;13.05;;;;;;;;;;4985925;28;20046;-87
2022/11/24 10:32:40;;;;;;;23.15;12.45;;;;;;;;;;4990498;28;20049;-86
2022/11/24 10:35:26;;;;;;;24.30;13.35;;;;;;;;;;5011833;28;20600;-88
2022/11/24 10:38:10;;;;;;;25.88;12.40;;;;;;;;;;5005627;28;20057;-86
2022/11/24 10:40:42;;;;;;;23.67;12.50;;;;;;;;;;5010917;28;20034;-86
2022/11/24 10:43:11;;;;;;;27.50;13.48;;;;;;;;;;4996882;28;20528;-87
2022/11/24 10:45:38;;;;;;;22.45;12.70;;;;;;;;;;5004966;28;20037;-85
2022/11/24 10:48:07;;;;;;;25.67;13.10;;;;;;;;;;4994303;28;20197;-87
2022/11/24 10:50:38;;;;;;;25.42;13.90;;;;;;;;;;5014824;28;20505;-86
2022/11/24 10:53:25;;;;;;;27.48;12.93;;;;;;;;;;5010746;28;20124;-86
2022/11/24 10:55:54;;;;;;;22.38;12.52;;;;;;;;;;5010903;28;20080;-86
2022/11/24 10:58:37;;;;;;;22.52;12.70;;;;;;;;;;5012163;28;20095;-86
2022/11/24 11:01:19;;;;;;;24.15;12.32;;;;;;;;;;5009989;28;20088;-86
2022/11/24 11:04:04;;;;;;;23.42;12.32;;;;;;;;;;4998607;28;20038;-86
2022/11/24 11:06:31;;;;;;;22.38;12.13;;;;;;;;;;5013616;28;20497;-87
2022/11/24 11:09:05;;;;;;;25.48;12.98;;;;;;;;;;4986438;28;20477;-86
2022/11/24 11:11:32;;;;;;;22.15;11.95;;;;;;;;;;4998060;28;20045;-87
2022/11/24 11:14:03;;;;;;;24.20;12.50;;;;;;;;;;4980522;28;20397;-86
2022/11/24 11:16:39;;;;;;;22.60;12.73;;;;;;;;;;4969517;28;20049;-88
2022/11/24 11:19:35;;;;;;;24.20;13.13;;;;;;;;;;4984833;28;20564;-86
2022/11/24 11:22:09;;;;;;;21.33;12.65;;;;;;;;;;5005265;28;20061;-88
2022/11/24 11:24:37;;;;;;;27.17;12.88;;;;;;;;;;4998067;28;20042;-86
2022/11/24 11:27:17;;;;;;;24.15;13.25;;;;;;;;;;4994481;28;20448;-87
2022/11/24 11:29:42;;;;;;;24.67;13.40;;;;;;;;;;5002761;28;20191;-87
2022/11/24 11:32:22;;;;;;;23.20;12.60;;;;;;;;;;4984202;28;20500;-86
2022/11/24 11:34:52;;;;;;;22.48;12.50;;;;;;;;;;5000342;28;20037;-86
2022/11/24 11:37:22;;;;;;;24.33;12.73;;;;;;;;;;4975434;28;20056;-86
2022/11/24 11:39:50;;;;;;;22.10;12.18;;;;;;;;;;4978664;28;20041;-87
2022/11/24 11:42:18;;;;;;;22.77;12.80;;;;;;;;;;4984632;28;20117;-88
2022/11/24 11:44:43;;;;;;;24.05;12.85;;;;;;;;;;5005687;28;24619;-87
2022/11/24 11:47:32;;;;;;;26.90;13.65;;;;;;;;;;5015320;28;20037;-87
2022/11/24 11:49:57;;;;;;;24.58;13.10;;;;;;;;;;4991811;28;20044;-87
2022/11/24 11:52:44;;;;;;;25.92;12.90;;;;;;;;;;4989852;28;20030;-87
2022/11/24 11:55:21;;;;;;;23.27;12.65;;;;;;;;;;5007842;28;20297;-86
2022/11/24 11:58:05;;;;;;;25.05;14.27;;;;;;;;;;4997627;28;20045;-86
2022/11/24 12:00:33;;;;;;;23.40;12.38;;;;;;;;;;5002551;28;20117;-86
2022/11/24 12:03:18;;;;;;;24.33;13.30;;;;;;;;;;5006625;28;20099;-87
2022/11/24 12:05:50;;;;;;;26.02;13.23;;;;;;;;;;5013225;28;20041;-87
2022/11/24 12:08:28;;;;;;;26.73;13.82;;;;;;;;;;4973536;28;20062;-87
2022/11/24 12:11:07;;;;;;;23.67;12.68;;;;;;;;;;4982245;28;20540;-85
2022/11/24 12:13:43;;;;;;;25.55;13.43;;;;;;;;;;4988178;28;20136;-86
2022/11/24 12:16:35;;;;;;;27.50;13.40;;;;;;;;;;4978083;28;20030;-85
2022/11/24 12:19:29;;;;;;;26.73;13.27;;;;;;;;;;4990686;28;20385;-87
2022/11/24 12:22:00;;;;;;;22.30;13.07;;;;;;;;;;5003127;28;20045;-87
2022/11/24 12:24:37;;;;;;;26.27;14.00;;;;;;;;;;4994506;28;20113;-88
2022/11/24 12:27:10;;;;;;;25.85;14.27;;;;;;;;;;5008846;28;20045;-87
2022/11/24 12:30:03;;;;;;;27.35;13.82;;;;;;;;;;4976715;28;20027;-87
2022/11/24 12:32:42;;;;;;;24.40;13.38;;;;;;;;;;4947965;28;20072;-87
2022/11/24 12:35:43;;;;;;;22.98;12.73;;;;;;;;;;4939973;28;20498;-86
2022/11/24 12:39:00;;;;;;;25.52;13.13;;;;;;;;;;4937936;28;20038;-87
2022/11/24 12:41:37;;;;;;;22.50;12.20;;;;;;;;;;4901192;28;20031;-88
2022/11/24 12:44:03;;;;;;;24.50;13.52;;;;;;;;;;4939683;28;20044;-87
2022/11/24 12:46:53;;;;;;;22.60;12.80;;;;;;;;;;4925493;29;20895;-87
2022/11/24 12:49:45;;;;;;;26.10;13.35;;;;;;;;;;4915795;28;20047;-86
2022/11/24 12:52:25;;;;;;;25.95;13.50;;;;;;;;;;4947262;28;20049;-87
2022/11/24 12:54:54;;;;;;;22.70;12.48;;;;;;;;;;4947922;28;20034;-87
2022/11/24 12:57:30;;;;;;;24.95;12.90;;;;;;;;;;4922732;28;20098;-87
2022/11/24 13:00:14;;;;;;;24.02;12.50;;;;;;;;;;4948278;28;20058;-88
2022/11/24 13:03:21;;;;;;;25.10;13.52;;;;;;;;;;4935615;28;20038;-87
2022/11/24 13:05:55;;;;;;;25.50;13.40;;;;;;;;;;4920674;28;20043;-87
2022/11/24 13:08:21;;;;;;;24.38;13.07;;;;;;;;;;4963655;28;20077;-87
2022/11/24 13:10:49;;;;;;;24.35;13.32;;;;;;;;;;4992146;28;20445;-87
2022/11/24 13:13:14;;;;;;;23.55;12.90;;;;;;;;;;4992860;28;20054;-88
2022/11/24 13:15:55;;;;;;;23.45;13.35;;;;;;;;;;4975299;28;20044;-88
2022/11/24 13:18:42;;;;;;;24.08;13.20;;;;;;;;;;4993112;28;20040;-87
2022/11/24 13:21:26;;;;;;;25.65;14.18;;;;;;;;;;4968481;28;20038;-87
2022/11/24 13:24:16;;;;;;;24.55;13.57;;;;;;;;;;4984484;28;20038;-86
2022/11/24 13:26:44;;;;;;;27.73;14.38;;;;;;;;;;4981105;28;20681;-87
2022/11/24 13:29:28;;;;;;;25.33;13.65;;;;;;;;;;4971629;28;20039;-86
2022/11/24 13:32:17;;;;;;;26.05;13.48;;;;;;;;;;4974543;28;20042;-87
2022/11/24 13:34:53;;;;;;;23.30;13.32;;;;;;;;;;4993375;28;20038;-86
2022/11/24 13:37:21;;;;;;;24.38;13.52;;;;;;;;;;4986553;28;20040;-87
2022/11/24 13:39:48;;;;;;;24.40;13.20;;;;;;;;;;4986433;28;20027;-87
2022/11/24 13:42:13;;;;;;;25.85;13.57;;;;;;;;;;4994408;28;20146;-88
2022/11/24 13:44:43;;;;;;;25.60;14.50;;;;;;;;;;4974915;28;20121;-86
2022/11/24 13:47:34;;;;;;;23.42;12.40;;;;;;;;;;4994196;28;20027;-87
2022/11/24 13:50:04;;;;;;;22.92;13.15;;;;;;;;;;4979216;28;20052;-87
2022/11/24 13:52:43;;;;;;;26.48;14.52;;;;;;;;;;4969700;28;20038;-86
2022/11/24 13:55:11;;;;;;;22.73;13.30;;;;;;;;;;4992763;28;20030;-86
2022/11/24 13:57:39;;;;;;;24.45;13.73;;;;;;;;;;4996153;28;20041;-86
2022/11/24 14:00:17;;;;;;;24.05;13.73;;;;;;;;;;4973039;28;20034;-85
2022/11/24 14:02:42;;;;;;;25.08;13.57;;;;;;;;;;4967507;28;20076;-86
2022/11/24 14:05:12;;;;;;;27.10;14.43;;;;;;;;;;4953957;28;20148;-86
2022/11/24 14:07:40;;;;;;;27.42;14.48;;;;;;;;;;4975040;28;20509;-86
2022/11/24 14:10:20;;;;;;;27.08;15.48;;;;;;;;;;4994899;28;20045;-86
2022/11/24 14:13:35;;;;;;;26.75;14.52;;;;;;;;;;5020529;28;20049;-87
2022/11/24 14:16:09;;;;;;;24.70;13.57;;;;;;;;;;4998586;28;20030;-83
2022/11/24 14:18:43;;;;;;;26.70;13.90;;;;;;;;;;5014108;28;20570;-82
2022/11/24 14:21:29;;;;;;;26.27;13.80;;;;;;;;;;5014586;28;20052;-83
2022/11/24 14:23:59;;;;;;;26.00;14.55;;;;;;;;;;5005826;28;20515;-82
2022/11/24 14:26:32;;;;;;;25.42;13.82;;;;;;;;;;4970290;28;20037;-83
2022/11/24 14:29:14;;;;;;;27.75;14.80;;;;;;;;;;5005859;28;20088;-83
2022/11/24 14:31:42;;;;;;;24.77;13.60;;;;;;;;;;5004529;28;20378;-83
2022/11/24 14:34:10;;;;;;;;;;;;;;;;;;4997459;28;20080;-82
2022/11/24 14:36:36;;;;;;;24.98;13.40;;;;;;;;;;5006573;28;19917;-82
2022/11/24 14:39:02;;;;;;;26.25;14.23;;;;;;;;;;4994848;28;20133;-83
2022/11/24 14:41:27;;;;;;;24.88;14.02;;;;;;;;;;4988575;28;20456;-85